createdAt,value
2023-06-07T00:02:13.313Z,18.97
2023-06-07T00:05:22.319Z,18.95
2023-06-07T00:08:24.498Z,18.93
2023-06-07T00:11:26.135Z,18.92
2023-06-07T00:14:27.977Z,18.88
2023-06-07T00:17:29.887Z,18.85
2023-06-07T00:20:32.227Z,18.84
2023-06-07T00:23:36.048Z,18.81
2023-06-07T00:26:39.779Z,18.79
2023-06-07T00:29:41.634Z,18.77
2023-06-07T00:32:44.655Z,18.75
2023-06-07T00:35:49.076Z,18.74
2023-06-07T00:38:51.115Z,18.74
2023-06-07T00:41:53.265Z,18.72
2023-06-07T00:44:55.031Z,18.71
2023-06-07T00:47:57.349Z,18.69
2023-06-07T00:50:59.127Z,18.67
2023-06-07T00:54:05.876Z,18.66
2023-06-07T00:57:08.266Z,18.63
2023-06-07T01:00:13.773Z,18.61
2023-06-07T01:03:15.809Z,18.59
2023-06-07T01:06:17.923Z,18.56
2023-06-07T01:09:23.260Z,18.55
2023-06-07T01:12:25.989Z,18.53
2023-06-07T01:15:30.259Z,18.53
2023-06-07T01:18:33.422Z,18.51
2023-06-07T01:21:38.190Z,18.51
2023-06-07T01:24:43.596Z,18.50
2023-06-07T01:27:46.577Z,18.48
2023-06-07T01:30:49.295Z,18.48
2023-06-07T01:33:53.502Z,18.48
2023-06-07T01:36:56.449Z,18.47
2023-06-07T01:39:58.851Z,18.47
2023-06-07T01:43:01.222Z,18.46
2023-06-07T01:46:05.300Z,18.46
2023-06-07T01:49:07.132Z,18.45
2023-06-07T01:52:08.965Z,18.45
2023-06-07T01:55:11.017Z,18.45
2023-06-07T01:58:24.148Z,18.45
2023-06-07T02:01:34.360Z,18.44
2023-06-07T02:04:43.577Z,18.44
2023-06-07T02:07:51.154Z,18.45
2023-06-07T02:10:54.623Z,18.44
2023-06-07T02:13:56.681Z,18.43
2023-06-07T02:16:58.628Z,18.42
2023-06-07T02:20:00.569Z,18.42
2023-06-07T02:23:02.869Z,18.42
2023-06-07T02:26:05.096Z,18.41
2023-06-07T02:29:06.752Z,18.41
2023-06-07T02:32:08.884Z,18.39
2023-06-07T02:35:10.564Z,18.36
2023-06-07T02:38:12.277Z,18.36
2023-06-07T02:41:14.018Z,18.35
2023-06-07T02:44:15.765Z,18.34
2023-06-07T02:47:17.594Z,18.34
2023-06-07T02:50:19.659Z,18.33
2023-06-07T02:53:22.876Z,18.35
2023-06-07T02:56:24.669Z,18.34
2023-06-07T02:59:27.473Z,18.33
2023-06-07T03:02:29.509Z,18.33
2023-06-07T03:05:31.782Z,18.32
2023-06-07T03:08:37.412Z,18.33
2023-06-07T03:11:40.038Z,18.32
2023-06-07T03:14:42.993Z,18.32
2023-06-07T03:17:46.395Z,18.33
2023-06-07T03:20:49.047Z,18.34
2023-06-07T03:23:53.681Z,18.35
2023-06-07T03:26:58.234Z,18.37
2023-06-07T03:30:00.471Z,18.37
2023-06-07T03:33:02.709Z,18.38
2023-06-07T03:36:07.929Z,18.40
2023-06-07T03:39:10.308Z,18.42
2023-06-07T03:42:12.395Z,18.45
2023-06-07T03:45:15.380Z,18.47
2023-06-07T03:48:17.646Z,18.49
2023-06-07T03:51:19.552Z,18.52
2023-06-07T03:54:21.398Z,18.53
2023-06-07T03:57:23.685Z,18.55
2023-06-07T04:00:27.865Z,18.56
2023-06-07T04:03:33.336Z,18.58
2023-06-07T04:06:36.984Z,18.60
2023-06-07T04:09:40.547Z,18.60
2023-06-07T04:12:44.039Z,18.63
2023-06-07T04:15:46.385Z,18.62
2023-06-07T04:18:48.436Z,18.63
2023-06-07T04:21:50.441Z,18.65
2023-06-07T04:24:52.338Z,18.65
2023-06-07T04:27:59.885Z,18.67
2023-06-07T04:31:02.657Z,18.69
2023-06-07T04:34:06.286Z,18.72
2023-06-07T04:37:09.753Z,18.74
2023-06-07T04:40:14.628Z,18.76
2023-06-07T04:43:18.878Z,18.79
2023-06-07T04:46:21.431Z,18.82
2023-06-07T04:49:23.869Z,18.84
2023-06-07T04:52:27.676Z,18.87
2023-06-07T04:55:36.155Z,18.87
2023-06-07T04:58:42.094Z,18.89
2023-06-07T05:01:45.691Z,18.90
2023-06-07T05:04:47.725Z,18.93
2023-06-07T05:07:50.352Z,18.95
2023-06-07T05:10:52.083Z,18.98
2023-06-07T05:13:56.560Z,19.02
2023-06-07T05:17:01.828Z,19.05
2023-06-07T05:20:12.586Z,19.09
2023-06-07T05:23:17.195Z,19.12
2023-06-07T05:26:22.893Z,19.14
2023-06-07T05:29:24.795Z,19.18
2023-06-07T05:32:26.890Z,19.21
2023-06-07T05:35:29.120Z,19.24
2023-06-07T05:38:32.250Z,19.27
2023-06-07T05:41:35.962Z,19.29
2023-06-07T05:44:38.165Z,19.33
2023-06-07T05:47:41.374Z,19.37
2023-06-07T05:50:43.315Z,19.39
2023-06-07T05:53:45.113Z,19.41
2023-06-07T05:56:49.006Z,19.44
2023-06-07T05:59:51.377Z,19.47
2023-06-07T06:02:57.111Z,19.50
2023-06-07T06:05:59.038Z,19.53
2023-06-07T06:09:01.150Z,19.57
2023-06-07T06:12:03.479Z,19.62
2023-06-07T06:15:06.334Z,19.63
2023-06-07T06:18:08.222Z,19.66
2023-06-07T06:21:10.194Z,19.70
2023-06-07T06:24:11.985Z,19.73
2023-06-07T06:27:13.842Z,19.75
2023-06-07T06:30:17.736Z,19.77
2023-06-07T06:33:19.633Z,19.80
2023-06-07T06:36:21.420Z,19.85
2023-06-07T06:39:26.478Z,19.88
2023-06-07T06:42:28.303Z,19.91
2023-06-07T06:45:58.893Z,19.94
2023-06-07T06:49:11.359Z,19.97
2023-06-07T06:55:27.144Z,20.12
2023-06-07T06:58:32.068Z,20.16
2023-06-07T07:01:53.419Z,20.22
2023-06-07T07:04:56.945Z,20.29
2023-06-07T07:08:00.053Z,20.34
2023-06-07T07:11:03.839Z,20.41
2023-06-07T07:14:06.959Z,20.45
2023-06-07T07:17:10.056Z,20.52
2023-06-07T07:20:13.921Z,20.56
2023-06-07T07:23:20.960Z,20.62
2023-06-07T07:26:24.373Z,20.66
2023-06-07T07:29:29.007Z,20.71
2023-06-07T07:32:34.118Z,20.74
2023-06-07T07:35:37.473Z,20.81
2023-06-07T07:38:41.649Z,20.88
2023-06-07T07:41:45.051Z,20.96
2023-06-07T07:44:48.201Z,21.04
2023-06-07T07:47:51.494Z,21.11
2023-06-07T07:50:56.429Z,21.20
2023-06-07T07:53:59.961Z,21.31
2023-06-07T07:57:03.221Z,21.48
2023-06-07T08:00:07.119Z,21.60
2023-06-07T08:03:16.824Z,21.70
2023-06-07T08:06:20.072Z,21.76
2023-06-07T08:09:23.172Z,21.82
2023-06-07T08:12:26.224Z,21.86
2023-06-07T08:15:29.409Z,21.88
2023-06-07T08:18:32.424Z,21.93
2023-06-07T08:21:36.808Z,21.95
2023-06-07T08:24:39.925Z,21.98
2023-06-07T08:27:43.325Z,22.01
2023-06-07T08:30:48.750Z,22.11
2023-06-07T08:33:52.926Z,22.17
2023-06-07T08:36:56.179Z,22.25
2023-06-07T08:39:59.233Z,22.30
2023-06-07T08:43:02.432Z,22.35
2023-06-07T08:46:06.072Z,22.45
2023-06-07T08:49:12.175Z,22.54
2023-06-07T08:52:17.374Z,22.73
2023-06-07T08:55:21.005Z,23.01
2023-06-07T08:58:25.954Z,23.11
2023-06-07T09:01:36.586Z,23.17
2023-06-07T09:04:42.317Z,23.25
2023-06-07T09:07:45.478Z,23.30
2023-06-07T09:10:48.575Z,23.39
2023-06-07T09:13:52.028Z,23.54
2023-06-07T09:16:56.734Z,23.65
2023-06-07T09:19:59.932Z,23.63
2023-06-07T09:23:10.435Z,23.58
2023-06-07T09:26:14.900Z,23.52
2023-06-07T09:29:20.079Z,23.48
2023-06-07T09:32:25.431Z,23.49
2023-06-07T09:35:29.349Z,23.54
2023-06-07T09:38:32.523Z,23.57
2023-06-07T09:41:35.724Z,23.57
2023-06-07T09:44:39.062Z,23.58
2023-06-07T09:47:46.462Z,23.60
2023-06-07T09:50:57.216Z,23.59
2023-06-07T09:54:02.424Z,23.55
2023-06-07T09:57:08.090Z,23.45
2023-06-07T10:00:18.992Z,23.38
2023-06-07T10:03:22.121Z,23.35
2023-06-07T10:06:25.988Z,23.37
2023-06-07T10:09:31.019Z,23.36
2023-06-07T10:12:39.935Z,23.34
2023-06-07T10:15:46.003Z,23.32
2023-06-07T10:18:52.451Z,23.45
2023-06-07T10:21:58.880Z,23.66
2023-06-07T10:25:13.368Z,23.64
2023-06-07T10:28:59.546Z,23.57
2023-06-07T10:32:17.004Z,23.63
2023-06-07T10:35:21.633Z,23.73
2023-06-07T10:38:25.689Z,23.77
2023-06-07T10:41:30.007Z,23.85
2023-06-07T10:44:33.747Z,24.21
2023-06-07T10:47:37.075Z,24.38
2023-06-07T10:50:48.079Z,24.32
2023-06-07T10:53:51.383Z,24.21
2023-06-07T10:56:54.739Z,24.32
2023-06-07T11:00:31.317Z,24.43
2023-06-07T11:03:34.881Z,24.42
2023-06-07T11:07:17.068Z,24.36
2023-06-07T11:10:20.135Z,24.38
2023-06-07T11:13:23.273Z,24.59
2023-06-07T11:16:27.115Z,24.84
2023-06-07T11:19:56.631Z,24.90
2023-06-07T11:23:35.653Z,24.90
2023-06-07T11:26:39.216Z,24.81
2023-06-07T11:29:44.245Z,24.82
2023-06-07T11:32:47.322Z,24.97
2023-06-07T11:35:51.382Z,24.91
2023-06-07T11:38:57.000Z,24.96
2023-06-07T11:42:00.090Z,24.91
2023-06-07T11:45:03.355Z,24.85
2023-06-07T11:48:07.350Z,25.09
2023-06-07T11:51:10.461Z,25.30
2023-06-07T11:54:13.870Z,25.46
2023-06-07T11:57:17.465Z,25.74
2023-06-07T12:00:24.600Z,25.94
2023-06-07T12:03:28.319Z,26.04
2023-06-07T12:06:31.723Z,26.16
2023-06-07T12:09:43.884Z,26.16
2023-06-07T12:12:47.126Z,26.13
2023-06-07T12:15:57.026Z,26.00
2023-06-07T12:19:00.377Z,25.92
2023-06-07T12:22:05.193Z,25.87
2023-06-07T12:25:13.411Z,25.85
2023-06-07T12:28:17.705Z,26.01
2023-06-07T12:31:23.224Z,26.04
2023-06-07T12:34:31.385Z,25.86
2023-06-07T12:37:38.601Z,25.63
2023-06-07T12:40:42.009Z,25.42
2023-06-07T12:43:47.498Z,25.23
2023-06-07T12:46:50.666Z,25.11
2023-06-07T12:49:53.900Z,25.09
2023-06-07T12:52:57.598Z,25.14
2023-06-07T12:56:00.753Z,25.17
2023-06-07T12:59:04.509Z,25.16
2023-06-07T13:02:07.823Z,25.37
2023-06-07T13:05:12.345Z,25.57
2023-06-07T13:08:15.502Z,25.64
2023-06-07T13:11:19.621Z,25.86
2023-06-07T13:14:22.704Z,26.05
2023-06-07T13:17:26.103Z,26.22
2023-06-07T13:20:29.412Z,26.39
2023-06-07T13:23:32.449Z,26.58
2023-06-07T13:26:35.494Z,26.68
2023-06-07T13:29:39.486Z,26.80
2023-06-07T13:32:42.711Z,26.92
2023-06-07T13:35:46.204Z,27.00
2023-06-07T13:38:49.965Z,27.09
2023-06-07T13:41:53.094Z,27.09
2023-06-07T13:44:56.230Z,27.09
2023-06-07T13:47:59.849Z,26.96
2023-06-07T13:51:05.231Z,26.84
2023-06-07T13:54:08.324Z,26.69
2023-06-07T13:57:11.414Z,26.68
2023-06-07T14:00:15.082Z,26.66
2023-06-07T14:03:21.239Z,26.64
2023-06-07T14:06:24.814Z,26.56
2023-06-07T14:09:28.748Z,26.53
2023-06-07T14:12:31.919Z,26.59
2023-06-07T14:15:35.029Z,26.68
2023-06-07T14:18:38.052Z,26.72
2023-06-07T14:21:41.244Z,26.73
2023-06-07T14:24:44.618Z,26.62
2023-06-07T14:27:47.736Z,26.58
2023-06-07T14:30:51.845Z,26.61
2023-06-07T14:33:54.989Z,26.66
2023-06-07T14:36:57.983Z,26.68
2023-06-07T14:40:01.492Z,26.69
2023-06-07T14:43:04.647Z,26.68
2023-06-07T14:46:07.897Z,26.67
2023-06-07T14:49:11.352Z,26.64
2023-06-07T14:52:14.446Z,26.59
2023-06-07T14:55:17.939Z,26.52
2023-06-07T14:58:21.166Z,26.45
2023-06-07T15:01:26.437Z,26.37
2023-06-07T15:04:29.570Z,26.30
2023-06-07T15:07:32.557Z,26.22
2023-06-07T15:10:35.838Z,26.05
2023-06-07T15:13:39.138Z,25.97
2023-06-07T15:16:42.262Z,25.92
2023-06-07T15:19:45.909Z,25.84
2023-06-07T15:22:49.040Z,25.70
2023-06-07T15:25:52.098Z,25.63
2023-06-07T15:28:58.074Z,25.51
2023-06-07T15:32:02.076Z,25.40
2023-06-07T15:35:05.640Z,25.31
2023-06-07T15:38:08.662Z,25.24
2023-06-07T15:41:15.034Z,25.22
2023-06-07T15:44:18.858Z,25.18
2023-06-07T15:47:21.940Z,25.14
2023-06-07T15:50:25.039Z,25.10
2023-06-07T15:53:28.105Z,25.08
2023-06-07T15:56:31.246Z,25.04
2023-06-07T15:59:36.368Z,25.01
2023-06-07T16:02:39.467Z,24.95
2023-06-07T16:05:42.764Z,24.89
2023-06-07T16:08:45.794Z,24.85
2023-06-07T16:11:49.024Z,24.81
2023-06-07T16:14:52.289Z,24.74
2023-06-07T16:17:55.512Z,24.66
2023-06-07T16:20:58.610Z,24.59
2023-06-07T16:24:03.827Z,24.52
2023-06-07T16:27:07.270Z,24.44
2023-06-07T16:30:10.989Z,24.38
2023-06-07T16:33:14.193Z,24.32
2023-06-07T16:36:18.487Z,24.27
2023-06-07T16:39:21.518Z,24.21
2023-06-07T16:42:24.596Z,24.15
2023-06-07T16:45:27.659Z,24.11
2023-06-07T16:48:30.655Z,24.05
2023-06-07T16:51:34.081Z,23.99
2023-06-07T16:54:37.066Z,23.95
2023-06-07T16:57:40.516Z,23.90
2023-06-07T17:00:43.812Z,23.86
2023-06-07T17:03:46.957Z,23.82
2023-06-07T17:06:50.025Z,23.80
2023-06-07T17:09:53.060Z,23.77
2023-06-07T17:12:56.098Z,23.75
2023-06-07T17:15:59.235Z,23.71
2023-06-07T17:19:03.548Z,23.68
2023-06-07T17:22:07.176Z,23.65
2023-06-07T17:25:10.443Z,23.63
2023-06-07T17:28:13.603Z,23.59
2023-06-07T17:31:16.928Z,23.57
2023-06-07T17:34:20.031Z,23.55
2023-06-07T17:37:23.069Z,23.52
2023-06-07T17:40:26.129Z,23.47
2023-06-07T17:43:29.361Z,23.44
2023-06-07T17:46:35.584Z,23.41
2023-06-07T17:49:38.599Z,23.38
2023-06-07T17:52:41.558Z,23.34
2023-06-07T17:55:46.793Z,23.31
2023-06-07T17:58:50.034Z,23.26
2023-06-07T18:01:55.178Z,23.23
2023-06-07T18:04:58.428Z,23.17
2023-06-07T18:08:01.643Z,23.12
2023-06-07T18:11:04.672Z,23.08
2023-06-07T18:14:07.758Z,23.03
2023-06-07T18:17:11.384Z,23.00
2023-06-07T18:20:14.497Z,22.96
2023-06-07T18:23:17.621Z,22.92
2023-06-07T18:26:22.674Z,22.89
2023-06-07T18:29:26.007Z,22.86
2023-06-07T18:32:29.035Z,22.81
2023-06-07T18:35:32.837Z,22.77
2023-06-07T18:38:36.168Z,22.72
2023-06-07T18:41:39.661Z,22.66
2023-06-07T18:44:42.774Z,22.61
2023-06-07T18:47:46.351Z,22.56
2023-06-07T18:50:49.793Z,22.49
2023-06-07T18:53:54.186Z,22.44
2023-06-07T18:56:58.365Z,22.39
2023-06-07T19:00:01.693Z,22.33
2023-06-07T19:03:05.042Z,22.28
2023-06-07T19:06:10.861Z,22.22
2023-06-07T19:09:15.474Z,22.16
2023-06-07T19:12:18.559Z,22.11
2023-06-07T19:15:22.007Z,22.05
2023-06-07T19:18:25.091Z,21.99
2023-06-07T19:21:32.202Z,21.93
2023-06-07T19:24:43.448Z,21.86
2023-06-07T19:27:46.631Z,21.79
2023-06-07T19:30:49.775Z,21.75
2023-06-07T19:33:53.804Z,21.70
2023-06-07T19:36:56.940Z,21.66
2023-06-07T19:40:05.986Z,21.61
2023-06-07T19:43:09.004Z,21.55
2023-06-07T19:46:12.177Z,21.51
2023-06-07T19:49:15.383Z,21.47
2023-06-07T19:52:19.430Z,21.44
2023-06-07T19:55:22.488Z,21.41
2023-06-07T19:58:25.488Z,21.37
2023-06-07T20:01:30.938Z,21.34
2023-06-07T20:04:34.210Z,21.31
2023-06-07T20:07:37.217Z,21.29
2023-06-07T20:10:40.393Z,21.27
2023-06-07T20:13:43.501Z,21.23
2023-06-07T20:16:46.817Z,21.21
2023-06-07T20:19:49.897Z,21.20
2023-06-07T20:22:53.070Z,21.17
2023-06-07T20:25:57.066Z,21.16
2023-06-07T20:29:02.325Z,21.13
2023-06-07T20:32:06.502Z,21.11
2023-06-07T20:35:09.928Z,21.08
2023-06-07T20:38:13.070Z,21.04
2023-06-07T20:41:16.284Z,21.01
2023-06-07T20:44:19.533Z,20.97
2023-06-07T20:47:22.690Z,20.94
2023-06-07T20:50:26.267Z,20.90
2023-06-07T20:53:29.614Z,20.87
2023-06-07T20:56:33.969Z,20.83
2023-06-07T20:59:44.643Z,20.80
2023-06-07T21:02:47.825Z,20.77
2023-06-07T21:05:50.922Z,20.74
2023-06-07T21:08:53.914Z,20.71
2023-06-07T21:11:56.965Z,20.69
2023-06-07T21:15:00.254Z,20.66
2023-06-07T21:18:03.643Z,20.61
2023-06-07T21:21:06.858Z,20.56
2023-06-07T21:24:10.111Z,20.53
2023-06-07T21:27:13.258Z,20.48
2023-06-07T21:30:16.462Z,20.44
2023-06-07T21:33:20.475Z,20.40
2023-06-07T21:36:23.493Z,20.36
2023-06-07T21:39:26.516Z,20.32
2023-06-07T21:42:29.573Z,20.28
2023-06-07T21:45:32.605Z,20.24
2023-06-07T21:48:40.059Z,20.21
2023-06-07T21:51:43.068Z,20.18
2023-06-07T21:54:47.880Z,20.15
2023-06-07T21:57:51.086Z,20.14
2023-06-07T22:00:54.338Z,20.11
2023-06-07T22:03:57.436Z,20.08
2023-06-07T22:07:00.637Z,20.06
2023-06-07T22:10:04.160Z,20.02
2023-06-07T22:13:07.309Z,19.99
2023-06-07T22:16:10.383Z,19.94
2023-06-07T22:19:15.565Z,19.90
2023-06-07T22:22:18.662Z,19.86
2023-06-07T22:25:39.455Z,19.84
2023-06-07T22:28:45.719Z,19.80
2023-06-07T22:31:49.043Z,19.77
2023-06-07T22:34:54.402Z,19.72
2023-06-07T22:37:58.003Z,19.68
2023-06-07T22:41:01.686Z,19.64
2023-06-07T22:44:05.299Z,19.61
2023-06-07T22:47:08.521Z,19.57
2023-06-07T22:50:11.898Z,19.55
2023-06-07T22:53:15.587Z,19.52
2023-06-07T22:56:18.708Z,19.49
2023-06-07T22:59:23.066Z,19.45
2023-06-07T23:02:27.025Z,19.41
2023-06-07T23:05:30.285Z,19.38
2023-06-07T23:08:33.926Z,19.35
2023-06-07T23:11:38.795Z,19.30
2023-06-07T23:14:41.915Z,19.25
2023-06-07T23:17:45.744Z,19.22
2023-06-07T23:20:49.992Z,19.19
2023-06-07T23:23:53.418Z,19.16
2023-06-07T23:26:59.612Z,19.12
2023-06-07T23:30:02.727Z,19.09
2023-06-07T23:33:07.265Z,19.07
2023-06-07T23:36:10.313Z,19.04
2023-06-07T23:39:13.347Z,19.00
2023-06-07T23:42:17.403Z,18.95
2023-06-07T23:45:22.175Z,18.91
2023-06-07T23:48:26.217Z,18.89
2023-06-07T23:51:29.336Z,18.85
2023-06-07T23:54:32.455Z,18.83
2023-06-07T23:57:35.550Z,18.80
